createdAt,value
2022-11-05T00:00:36.400Z,10.20
2022-11-05T00:03:22.389Z,10.20
2022-11-05T00:06:09.846Z,10.20
2022-11-05T00:08:55.634Z,10.20
2022-11-05T00:11:42.782Z,10.20
2022-11-05T00:14:28.183Z,10.20
2022-11-05T00:16:55.409Z,10.20
2022-11-05T00:19:22.408Z,10.20
2022-11-05T00:22:08.008Z,10.20
2022-11-05T00:24:53.732Z,10.20
2022-11-05T00:27:20.932Z,10.20
2022-11-05T00:29:47.930Z,10.20
2022-11-05T00:32:14.925Z,10.20
2022-11-05T00:34:41.998Z,10.20
2022-11-05T00:37:08.997Z,10.20
2022-11-05T00:39:36.073Z,10.20
2022-11-05T00:42:21.516Z,10.30
2022-11-05T00:45:03.752Z,10.30
2022-11-05T00:47:51.737Z,10.30
2022-11-05T00:50:22.782Z,10.30
2022-11-05T00:53:00.611Z,10.20
2022-11-05T00:55:33.937Z,10.20
2022-11-05T00:58:02.736Z,10.20
2022-11-05T01:00:31.948Z,10.20
2022-11-05T01:03:05.055Z,10.20
2022-11-05T01:05:33.248Z,10.20
2022-11-05T01:08:00.945Z,10.20
2022-11-05T01:10:28.355Z,10.20
2022-11-05T01:12:55.577Z,10.20
2022-11-05T01:15:22.920Z,10.20
2022-11-05T01:17:52.499Z,10.20
2022-11-05T01:20:19.826Z,10.10
2022-11-05T01:22:46.916Z,10.10
2022-11-05T01:25:14.194Z,10.20
2022-11-05T01:27:41.276Z,10.20
2022-11-05T01:30:09.620Z,10.20
2022-11-05T01:32:37.887Z,10.20
2022-11-05T01:35:09.045Z,10.20
2022-11-05T01:37:36.677Z,10.30
2022-11-05T01:40:04.897Z,10.20
2022-11-05T01:42:33.146Z,10.20
2022-11-05T01:45:14.463Z,10.20
2022-11-05T01:47:47.378Z,10.20
2022-11-05T01:50:38.479Z,10.20
2022-11-05T01:53:15.128Z,10.20
2022-11-05T01:55:48.164Z,10.20
2022-11-05T01:58:20.908Z,10.20
2022-11-05T02:00:48.746Z,10.20
2022-11-05T02:03:17.843Z,10.20
2022-11-05T02:05:46.585Z,10.20
2022-11-05T02:08:22.674Z,10.20
2022-11-05T02:10:50.764Z,10.20
2022-11-05T02:13:17.889Z,10.20
2022-11-05T02:16:26.361Z,10.00
2022-11-05T02:19:15.143Z,10.20
2022-11-05T02:22:07.054Z,10.20
2022-11-05T02:25:08.061Z,10.20
2022-11-05T02:27:59.261Z,10.20
2022-11-05T02:30:35.459Z,10.20
2022-11-05T02:33:30.649Z,10.20
2022-11-05T02:36:11.956Z,10.20
2022-11-05T02:39:17.768Z,10.20
2022-11-05T02:42:31.570Z,10.30
2022-11-05T02:45:33.542Z,10.30
2022-11-05T02:48:19.000Z,10.30
2022-11-05T02:51:08.402Z,10.20
2022-11-05T02:53:51.933Z,10.20
2022-11-05T02:56:27.978Z,10.20
2022-11-05T02:58:55.164Z,10.20
2022-11-05T03:01:22.276Z,10.20
2022-11-05T03:04:01.231Z,10.20
2022-11-05T03:06:30.994Z,10.30
2022-11-05T03:09:07.187Z,10.30
2022-11-05T03:12:01.220Z,10.30
2022-11-05T03:14:56.948Z,10.30
2022-11-05T03:17:33.038Z,10.30
2022-11-05T03:20:29.807Z,10.30
2022-11-05T03:23:19.007Z,10.30
2022-11-05T03:25:58.524Z,10.30
2022-11-05T03:28:29.852Z,10.30
2022-11-05T03:30:58.402Z,10.30
2022-11-05T03:33:28.972Z,10.30
2022-11-05T03:36:01.092Z,10.30
2022-11-05T03:38:35.162Z,10.30
2022-11-05T03:41:06.540Z,10.30
2022-11-05T03:43:38.023Z,10.30
2022-11-05T03:46:10.257Z,10.30
2022-11-05T03:48:47.528Z,10.30
2022-11-05T03:51:26.607Z,10.40
2022-11-05T03:53:58.557Z,10.30
2022-11-05T03:56:54.821Z,10.30
2022-11-05T03:59:22.824Z,10.30
2022-11-05T04:01:50.643Z,10.30
2022-11-05T04:04:17.835Z,10.30
2022-11-05T04:07:03.168Z,10.30
2022-11-05T04:09:48.595Z,10.30
2022-11-05T04:12:33.933Z,10.30
2022-11-05T04:15:01.101Z,10.20
2022-11-05T04:17:28.324Z,10.20
2022-11-05T04:20:13.800Z,10.20
2022-11-05T04:22:59.434Z,10.10
2022-11-05T04:25:26.483Z,10.10
2022-11-05T04:27:53.548Z,10.10
2022-11-05T04:30:20.932Z,10.10
2022-11-05T04:33:16.702Z,10.10
2022-11-05T04:35:46.795Z,10.20
2022-11-05T04:38:19.334Z,10.20
2022-11-05T04:40:47.843Z,10.20
2022-11-05T04:43:17.138Z,10.20
2022-11-05T04:45:45.243Z,10.20
2022-11-05T04:48:13.149Z,10.20
2022-11-05T04:50:40.172Z,10.30
2022-11-05T04:53:07.209Z,10.30
2022-11-05T04:55:34.264Z,10.30
2022-11-05T04:58:01.289Z,10.30
2022-11-05T05:00:28.524Z,10.30
2022-11-05T05:02:55.653Z,10.40
2022-11-05T05:05:23.275Z,10.40
2022-11-05T05:07:50.442Z,10.40
2022-11-05T05:10:17.579Z,10.40
2022-11-05T05:12:44.662Z,10.40
2022-11-05T05:15:11.722Z,10.40
2022-11-05T05:17:38.787Z,10.40
2022-11-05T05:20:24.912Z,10.40
2022-11-05T05:22:55.767Z,10.40
2022-11-05T05:25:23.535Z,10.40
2022-11-05T05:27:50.703Z,10.40
2022-11-05T05:30:18.098Z,10.40
2022-11-05T05:32:45.259Z,10.30
2022-11-05T05:35:12.308Z,10.30
2022-11-05T05:37:39.459Z,10.20
2022-11-05T05:40:07.005Z,10.20
2022-11-05T05:42:38.766Z,10.20
2022-11-05T05:45:09.289Z,10.30
2022-11-05T05:47:36.473Z,10.30
2022-11-05T05:50:03.782Z,10.30
2022-11-05T05:52:30.847Z,10.30
2022-11-05T05:54:57.840Z,10.30
2022-11-05T05:57:25.233Z,10.30
2022-11-05T05:59:52.277Z,10.30
2022-11-05T06:02:19.419Z,10.30
2022-11-05T06:04:46.936Z,10.30
2022-11-05T06:07:13.927Z,10.30
2022-11-05T06:09:40.972Z,10.40
2022-11-05T06:12:08.318Z,10.40
2022-11-05T06:14:35.366Z,10.40
2022-11-05T06:17:02.370Z,10.50
2022-11-05T06:19:29.630Z,10.50
2022-11-05T06:21:56.618Z,10.50
2022-11-05T06:24:23.685Z,10.50
2022-11-05T06:26:50.726Z,10.50
2022-11-05T06:29:17.755Z,10.60
2022-11-05T06:31:44.985Z,10.60
2022-11-05T06:34:12.025Z,10.60
2022-11-05T06:36:40.369Z,10.60
2022-11-05T06:39:12.206Z,10.60
2022-11-05T06:42:04.117Z,10.60
2022-11-05T06:44:26.705Z,10.60
2022-11-05T06:46:53.741Z,10.70
2022-11-05T06:49:24.695Z,10.70
2022-11-05T06:51:54.266Z,10.70
2022-11-05T06:54:21.568Z,10.70
2022-11-05T06:56:48.595Z,10.70
2022-11-05T06:59:15.768Z,10.70
2022-11-05T07:01:43.073Z,10.70
2022-11-05T07:04:12.748Z,10.70
2022-11-05T07:06:39.824Z,10.70
2022-11-05T07:09:06.997Z,10.70
2022-11-05T07:11:34.074Z,10.80
2022-11-05T07:14:01.517Z,10.70
2022-11-05T07:16:28.574Z,10.80
2022-11-05T07:18:56.099Z,10.80
2022-11-05T07:21:23.293Z,10.80
2022-11-05T07:23:50.673Z,10.80
2022-11-05T07:26:17.883Z,10.90
2022-11-05T07:28:44.888Z,10.90
2022-11-05T07:31:11.932Z,10.90
2022-11-05T07:33:39.050Z,11.00
2022-11-05T07:36:06.392Z,11.00
2022-11-05T07:38:33.638Z,11.00
2022-11-05T07:41:00.777Z,11.10
2022-11-05T07:43:28.037Z,11.10
2022-11-05T07:45:55.196Z,11.10
2022-11-05T07:48:22.288Z,11.10
2022-11-05T07:50:53.373Z,11.10
2022-11-05T07:53:21.354Z,11.10
2022-11-05T07:55:48.693Z,11.10
2022-11-05T07:58:15.808Z,11.10
2022-11-05T08:00:43.015Z,11.10
2022-11-05T08:03:16.906Z,11.10
2022-11-05T08:05:46.787Z,11.10
2022-11-05T08:08:16.161Z,11.20
2022-11-05T08:10:43.802Z,11.20
2022-11-05T08:13:12.209Z,11.30
2022-11-05T08:15:39.805Z,11.40
2022-11-05T08:18:15.403Z,11.40
2022-11-05T08:20:44.256Z,11.50
2022-11-05T08:23:11.903Z,11.50
2022-11-05T08:25:40.014Z,11.60
2022-11-05T08:28:11.042Z,11.60
2022-11-05T08:30:38.667Z,11.60
2022-11-05T08:33:09.215Z,11.60
2022-11-05T08:35:37.664Z,11.70
2022-11-05T08:38:06.760Z,11.70
2022-11-05T08:40:36.124Z,11.80
2022-11-05T08:43:05.581Z,11.80
2022-11-05T08:45:33.210Z,11.80
2022-11-05T08:48:11.294Z,11.80
2022-11-05T08:50:39.597Z,11.80
2022-11-05T08:53:07.578Z,11.70
2022-11-05T08:55:34.722Z,11.70
2022-11-05T08:58:04.614Z,11.60
2022-11-05T09:00:34.204Z,11.60
2022-11-05T09:03:02.913Z,11.60
2022-11-05T09:05:31.638Z,11.50
2022-11-05T09:08:01.166Z,11.50
2022-11-05T09:10:28.736Z,11.50
2022-11-05T09:12:56.138Z,11.50
2022-11-05T09:15:23.664Z,11.50
2022-11-05T09:17:51.458Z,11.50
2022-11-05T09:20:18.929Z,11.50
2022-11-05T09:22:46.903Z,11.50
2022-11-05T09:25:16.010Z,11.50
2022-11-05T09:27:43.834Z,11.50
2022-11-05T09:30:12.937Z,11.60
2022-11-05T09:32:40.437Z,11.60
2022-11-05T09:35:09.018Z,11.60
2022-11-05T09:37:39.488Z,11.70
2022-11-05T09:40:07.443Z,11.70
2022-11-05T09:42:43.591Z,11.70
2022-11-05T09:45:18.605Z,11.70
2022-11-05T09:48:04.439Z,11.70
2022-11-05T09:50:36.692Z,11.80
2022-11-05T09:53:04.989Z,11.80
2022-11-05T09:55:42.609Z,11.80
2022-11-05T09:58:28.696Z,11.90
2022-11-05T10:00:57.274Z,11.90
2022-11-05T10:03:26.774Z,11.90
2022-11-05T10:05:57.460Z,11.90
2022-11-05T10:08:29.756Z,11.90
2022-11-05T10:11:12.983Z,11.90
2022-11-05T10:13:48.063Z,11.90
2022-11-05T10:16:21.789Z,11.90
2022-11-05T10:19:24.668Z,11.80
2022-11-05T10:22:12.736Z,11.90
2022-11-05T10:24:48.055Z,11.90
2022-11-05T10:27:19.276Z,12.00
2022-11-05T10:29:47.125Z,12.00
2022-11-05T10:32:45.135Z,12.10
2022-11-05T10:35:22.701Z,12.20
2022-11-05T10:37:51.448Z,12.30
2022-11-05T10:40:49.339Z,12.30
2022-11-05T10:43:29.258Z,12.30
2022-11-05T10:46:02.277Z,12.30
2022-11-05T10:48:55.098Z,12.30
2022-11-05T10:51:22.126Z,12.30
2022-11-05T10:54:00.498Z,12.30
2022-11-05T10:56:40.365Z,12.40
2022-11-05T10:59:38.203Z,12.40
2022-11-05T11:02:28.450Z,12.40
2022-11-05T11:04:58.547Z,12.50
2022-11-05T11:07:27.094Z,12.50
2022-11-05T11:09:54.659Z,11.90
2022-11-05T11:12:27.930Z,12.50
2022-11-05T11:15:15.286Z,12.50
2022-11-05T11:17:42.659Z,12.60
2022-11-05T11:20:24.637Z,12.60
2022-11-05T11:23:15.246Z,12.60
2022-11-05T11:26:02.170Z,12.50
2022-11-05T11:28:35.339Z,12.50
2022-11-05T11:31:11.526Z,12.50
2022-11-05T11:33:41.336Z,12.50
2022-11-05T11:36:11.018Z,12.50
2022-11-05T11:38:39.112Z,12.50
2022-11-05T11:41:26.905Z,12.50
2022-11-05T11:43:59.734Z,12.60
2022-11-05T11:46:32.637Z,12.60
2022-11-05T11:49:00.246Z,12.70
2022-11-05T11:51:40.689Z,12.60
2022-11-05T11:54:20.049Z,12.60
2022-11-05T11:56:49.037Z,12.60
2022-11-05T11:59:53.851Z,12.50
2022-11-05T12:02:40.058Z,12.40
2022-11-05T12:05:26.292Z,12.40
2022-11-05T12:08:12.437Z,12.50
2022-11-05T12:11:10.384Z,12.50
2022-11-05T12:13:49.225Z,12.60
2022-11-05T12:16:34.683Z,12.60
2022-11-05T12:19:39.947Z,12.50
2022-11-05T12:22:42.515Z,12.50
2022-11-05T12:25:15.743Z,12.50
2022-11-05T12:27:48.821Z,12.50
2022-11-05T12:30:18.961Z,12.50
2022-11-05T12:33:24.328Z,12.60
2022-11-05T12:36:02.902Z,12.70
2022-11-05T12:38:54.561Z,12.30
2022-11-05T12:41:32.038Z,12.60
2022-11-05T12:44:25.558Z,12.50
2022-11-05T12:47:14.362Z,12.40
2022-11-05T12:50:00.145Z,12.30
2022-11-05T12:52:34.746Z,12.30
2022-11-05T12:55:11.185Z,12.30
2022-11-05T12:57:42.097Z,12.20
2022-11-05T13:00:22.611Z,12.20
2022-11-05T13:03:10.752Z,12.20
2022-11-05T13:05:41.004Z,12.20
2022-11-05T13:08:30.201Z,12.20
2022-11-05T13:11:10.562Z,12.20
2022-11-05T13:13:46.854Z,12.30
2022-11-05T13:16:29.597Z,12.30
2022-11-05T13:19:11.592Z,12.20
2022-11-05T13:21:39.555Z,12.10
2022-11-05T13:24:12.136Z,12.10
2022-11-05T13:26:50.817Z,12.00
2022-11-05T13:29:41.430Z,11.80
2022-11-05T13:32:29.433Z,11.80
2022-11-05T13:34:58.790Z,11.80
2022-11-05T13:37:53.344Z,11.70
2022-11-05T13:40:25.715Z,11.60
2022-11-05T13:43:15.116Z,11.50
2022-11-05T13:46:10.144Z,11.50
2022-11-05T13:48:43.044Z,11.40
2022-11-05T13:51:25.364Z,11.40
2022-11-05T13:53:58.186Z,11.40
2022-11-05T13:56:28.183Z,11.50
2022-11-05T13:59:04.881Z,11.40
2022-11-05T14:01:58.354Z,11.40
2022-11-05T14:04:33.779Z,11.40
2022-11-05T14:07:17.366Z,11.40
2022-11-05T14:09:45.019Z,11.40
2022-11-05T14:12:23.599Z,11.40
2022-11-05T14:14:58.715Z,11.40
2022-11-05T14:17:33.848Z,11.30
2022-11-05T14:20:06.523Z,11.30
2022-11-05T14:22:33.543Z,11.30
2022-11-05T14:25:19.772Z,11.30
2022-11-05T14:27:49.810Z,11.30
2022-11-05T14:30:42.945Z,11.30
2022-11-05T14:33:25.347Z,11.30
2022-11-05T14:36:13.319Z,11.30
2022-11-05T14:38:49.379Z,11.30
2022-11-05T14:41:17.040Z,11.30
2022-11-05T14:44:16.294Z,11.30
2022-11-05T14:46:49.218Z,11.30
2022-11-05T14:49:20.273Z,11.30
2022-11-05T14:51:53.742Z,11.20
2022-11-05T14:54:28.740Z,11.20
2022-11-05T14:56:59.364Z,11.10
2022-11-05T14:59:31.638Z,11.10
2022-11-05T15:02:12.468Z,11.00
2022-11-05T15:04:45.810Z,11.00
2022-11-05T15:07:35.953Z,10.90
2022-11-05T15:10:10.328Z,10.80
2022-11-05T15:12:54.674Z,11.00
2022-11-05T15:15:23.467Z,10.70
2022-11-05T15:18:05.827Z,10.70
2022-11-05T15:20:40.835Z,10.70
2022-11-05T15:23:16.009Z,10.60
2022-11-05T15:26:01.294Z,10.60
2022-11-05T15:28:38.673Z,10.50
2022-11-05T15:31:22.339Z,10.50
2022-11-05T15:33:49.557Z,10.50
2022-11-05T15:36:30.968Z,10.50
2022-11-05T15:41:47.508Z,10.60
2022-11-05T15:44:29.228Z,10.60
2022-11-05T15:47:27.144Z,10.50
2022-11-05T15:49:57.328Z,10.50
2022-11-05T15:52:31.716Z,10.50
2022-11-05T15:55:13.914Z,10.60
2022-11-05T15:57:50.467Z,10.60
2022-11-05T16:00:27.631Z,10.50
2022-11-05T16:02:58.327Z,10.50
2022-11-05T16:05:28.925Z,10.40
2022-11-05T16:07:59.945Z,10.40
2022-11-05T16:10:36.036Z,10.40
2022-11-05T16:13:22.709Z,10.40
2022-11-05T16:15:58.053Z,10.50
2022-11-05T16:18:31.334Z,10.50
2022-11-05T16:21:10.686Z,10.50
2022-11-05T16:23:43.886Z,10.50
2022-11-05T16:27:00.646Z,10.50
2022-11-05T16:29:53.876Z,10.50
2022-11-05T16:32:31.324Z,10.40
2022-11-05T16:35:04.394Z,10.50
2022-11-05T16:37:49.134Z,10.40
2022-11-05T16:40:24.336Z,10.50
2022-11-05T16:42:53.046Z,10.50
2022-11-05T16:45:24.364Z,10.40
2022-11-05T16:47:51.709Z,10.40
2022-11-05T16:50:18.789Z,10.40
2022-11-05T16:52:47.071Z,10.40
2022-11-05T16:55:15.462Z,10.40
2022-11-05T16:57:45.656Z,10.40
2022-11-05T17:00:18.544Z,10.40
2022-11-05T17:02:45.989Z,10.50
2022-11-05T17:05:26.101Z,10.50
2022-11-05T17:07:53.922Z,10.60
2022-11-05T17:10:25.071Z,10.50
2022-11-05T17:12:52.978Z,10.50
2022-11-05T17:15:25.063Z,10.50
2022-11-05T17:17:53.944Z,10.50
2022-11-05T17:20:36.470Z,10.50
2022-11-05T17:23:07.952Z,10.40
2022-11-05T17:25:35.558Z,10.50
2022-11-05T17:28:04.177Z,10.50
2022-11-05T17:30:31.504Z,10.50
2022-11-05T17:32:58.900Z,10.60
2022-11-05T17:35:27.157Z,10.60
2022-11-05T17:37:54.455Z,10.60
2022-11-05T17:40:23.118Z,10.60
2022-11-05T17:42:51.327Z,10.60
2022-11-05T17:45:18.983Z,10.60
2022-11-05T17:47:46.400Z,10.60
2022-11-05T17:50:15.986Z,10.70
2022-11-05T17:52:44.737Z,10.70
2022-11-05T17:55:19.377Z,10.70
2022-11-05T17:57:48.374Z,10.70
2022-11-05T18:00:21.809Z,10.70
2022-11-05T18:02:49.807Z,10.70
2022-11-05T18:05:20.363Z,10.70
2022-11-05T18:07:49.687Z,10.70
2022-11-05T18:10:17.324Z,10.70
2022-11-05T18:12:44.995Z,10.70
2022-11-05T18:15:13.575Z,10.70
2022-11-05T18:17:40.996Z,10.70
2022-11-05T18:20:14.172Z,10.70
2022-11-05T18:22:45.407Z,10.70
2022-11-05T18:25:13.939Z,10.70
2022-11-05T18:27:41.498Z,10.60
2022-11-05T18:30:10.390Z,10.60
2022-11-05T18:32:37.813Z,10.60
2022-11-05T18:35:05.186Z,10.60
2022-11-05T18:37:32.640Z,10.60
2022-11-05T18:39:59.714Z,10.50
2022-11-05T18:42:26.975Z,10.50
2022-11-05T18:44:55.300Z,10.50
2022-11-05T18:47:22.523Z,10.50
2022-11-05T18:49:49.721Z,10.50
2022-11-05T18:52:17.240Z,10.60
2022-11-05T18:54:44.522Z,10.60
2022-11-05T18:57:11.775Z,10.60
2022-11-05T18:59:42.405Z,10.50
2022-11-05T19:02:13.189Z,10.50
2022-11-05T19:04:46.839Z,10.50
2022-11-05T19:07:24.232Z,10.50
2022-11-05T19:09:51.333Z,10.50
2022-11-05T19:12:19.583Z,10.50
2022-11-05T19:14:47.102Z,10.50
2022-11-05T19:17:14.450Z,10.50
2022-11-05T19:19:42.147Z,10.50
2022-11-05T19:22:10.527Z,10.60
2022-11-05T19:24:37.570Z,10.60
2022-11-05T19:27:05.121Z,10.50
2022-11-05T19:29:32.993Z,10.50
2022-11-05T19:32:00.064Z,10.50
2022-11-05T19:34:27.551Z,10.40
2022-11-05T19:36:54.670Z,10.30
2022-11-05T19:39:21.806Z,10.30
2022-11-05T19:41:49.620Z,10.30
2022-11-05T19:44:16.881Z,10.20
2022-11-05T19:46:45.425Z,10.20
2022-11-05T19:49:31.719Z,10.20
2022-11-05T19:52:00.931Z,10.20
2022-11-05T19:54:53.747Z,10.20
2022-11-05T19:58:04.893Z,10.30
2022-11-05T20:00:49.923Z,10.30
2022-11-05T20:03:17.294Z,10.30
2022-11-05T20:05:44.721Z,10.30
2022-11-05T20:08:12.216Z,10.20
2022-11-05T20:10:40.197Z,10.20
2022-11-05T20:13:07.389Z,10.20
2022-11-05T20:15:41.618Z,10.20
2022-11-05T20:18:09.458Z,10.10
2022-11-05T20:20:37.268Z,10.20
2022-11-05T20:23:04.557Z,10.10
2022-11-05T20:25:32.076Z,10.10
2022-11-05T20:27:59.103Z,10.10
2022-11-05T20:30:26.312Z,10.10
2022-11-05T20:32:55.437Z,10.00
2022-11-05T20:35:23.975Z,10.00
2022-11-05T20:37:54.105Z,10.00
2022-11-05T20:40:21.905Z,10.00
2022-11-05T20:42:49.061Z,10.00
2022-11-05T20:45:16.224Z,10.00
2022-11-05T20:47:43.789Z,10.10
2022-11-05T20:50:13.357Z,10.10
2022-11-05T20:52:40.632Z,10.10
2022-11-05T20:55:10.551Z,10.20
2022-11-05T20:57:38.742Z,10.20
2022-11-05T21:00:09.061Z,10.20
2022-11-05T21:02:38.884Z,10.30
2022-11-05T21:05:08.194Z,10.30
2022-11-05T21:07:36.110Z,10.30
2022-11-05T21:10:05.139Z,10.30
2022-11-05T21:12:33.132Z,10.40
2022-11-05T21:15:00.796Z,10.40
2022-11-05T21:17:28.242Z,10.40
2022-11-05T21:19:55.941Z,10.40
2022-11-05T21:22:23.416Z,10.40
2022-11-05T21:24:50.509Z,10.40
2022-11-05T21:27:18.082Z,10.50
2022-11-05T21:29:45.548Z,10.50
2022-11-05T21:32:12.594Z,10.50
2022-11-05T21:34:39.899Z,10.50
2022-11-05T21:37:07.526Z,10.60
2022-11-05T21:39:35.262Z,10.60
2022-11-05T21:42:02.965Z,10.60
2022-11-05T21:44:30.268Z,10.60
2022-11-05T21:47:00.195Z,10.60
2022-11-05T21:49:27.637Z,10.60
2022-11-05T21:52:13.323Z,10.50
2022-11-05T21:54:59.165Z,10.50
2022-11-05T21:57:44.927Z,10.50
2022-11-05T22:00:12.979Z,10.40
2022-11-05T22:02:40.722Z,10.40
2022-11-05T22:05:08.508Z,10.40
2022-11-05T22:07:38.044Z,10.30
2022-11-05T22:10:13.293Z,10.30
2022-11-05T22:12:43.922Z,10.30
2022-11-05T22:15:11.393Z,10.30
2022-11-05T22:17:42.557Z,10.30
2022-11-05T22:20:12.598Z,10.20
2022-11-05T22:22:39.657Z,10.20
2022-11-05T22:25:07.129Z,10.20
2022-11-05T22:27:34.362Z,10.20
2022-11-05T22:30:01.435Z,10.20
2022-11-05T22:32:28.577Z,10.20
2022-11-05T22:34:55.905Z,10.20
2022-11-05T22:37:23.266Z,10.20
2022-11-05T22:39:50.433Z,10.20
2022-11-05T22:42:17.734Z,10.20
2022-11-05T22:44:45.005Z,10.20
2022-11-05T22:47:14.157Z,10.20
2022-11-05T22:49:41.347Z,10.20
2022-11-05T22:52:09.002Z,10.20
2022-11-05T22:54:39.253Z,10.20
2022-11-05T22:57:06.656Z,10.30
2022-11-05T22:59:33.807Z,10.30
2022-11-05T23:02:05.131Z,10.30
2022-11-05T23:04:35.393Z,10.30
2022-11-05T23:07:27.011Z,10.30
2022-11-05T23:10:13.954Z,10.30
2022-11-05T23:12:43.789Z,10.30
2022-11-05T23:15:31.104Z,10.60
2022-11-05T23:18:17.088Z,10.30
2022-11-05T23:21:02.593Z,10.30
2022-11-05T23:23:48.274Z,10.40
2022-11-05T23:26:34.080Z,10.30
2022-11-05T23:29:01.529Z,10.30
2022-11-05T23:31:47.035Z,10.40
2022-11-05T23:34:14.349Z,10.40
2022-11-05T23:36:59.715Z,10.40
2022-11-05T23:39:27.007Z,10.40
2022-11-05T23:42:12.332Z,10.40
2022-11-05T23:44:57.938Z,10.40
2022-11-05T23:47:43.876Z,10.40
2022-11-05T23:50:11.318Z,10.40
2022-11-05T23:52:38.524Z,10.40
2022-11-05T23:55:06.067Z,10.40
2022-11-05T23:57:33.467Z,10.50
